Time;durP1;ratioP1;P1;durP2;ratioP2;P2;SDS_P1;SDS_P2;PMS_P1;PMS_P2;Temp;Humidity;BMP_temperature;BMP_pressure;BME280_temperature;BME280_humidity;BME280_pressure;Samples;Min_cycle;Max_cycle;Signal;HPM_P1;HPM_P2
2023/04/06 00:02:12;;;;;;;15.97;8.93;;;6.50;61.40;;;;;;4995352;28;20072;-82
2023/04/06 00:04:37;;;;;;;13.90;7.37;;;6.50;62.10;;;;;;4995502;28;20118;-82
2023/04/06 00:07:03;;;;;;;17.20;8.17;;;6.50;61.40;;;;;;4995363;28;20029;-81
2023/04/06 00:09:29;;;;;;;16.10;8.00;;;6.40;61.50;;;;;;4979274;28;20030;-81
2023/04/06 00:11:55;;;;;;;14.27;7.13;;;6.40;61.50;;;;;;4979408;28;20116;-81
2023/04/06 00:14:20;;;;;;;14.43;7.90;;;6.40;61.60;;;;;;5011729;28;20117;-81
2023/04/06 00:16:46;;;;;;;14.37;8.67;;;6.40;61.70;;;;;;4995221;28;20128;-81
2023/04/06 00:19:12;;;;;;;13.17;7.73;;;6.40;61.80;;;;;;4979184;28;20030;-82
2023/04/06 00:21:38;;;;;;;13.33;7.07;;;6.40;61.80;;;;;;4978940;28;20034;-82
2023/04/06 00:24:04;;;;;;;14.77;7.87;;;6.30;61.90;;;;;;4979157;28;20034;-81
2023/04/06 00:26:29;;;;;;;15.37;7.87;;;6.30;62.10;;;;;;5011314;28;20133;-81
2023/04/06 00:28:55;;;;;;;14.80;8.00;;;6.30;62.30;;;;;;4978307;28;20026;-82
2023/04/06 00:31:21;;;;;;;16.37;8.90;;;6.20;62.40;;;;;;4994977;28;20022;-82
2023/04/06 00:33:48;;;;;;;12.37;7.47;;;6.20;62.50;;;;;;4994935;28;20034;-82
2023/04/06 00:36:14;;;;;;;15.10;7.93;;;6.20;62.60;;;;;;4994582;28;20486;-82
2023/04/06 00:38:39;;;;;;;15.43;7.93;;;6.10;62.70;;;;;;4978700;28;20044;-82
2023/04/06 00:41:05;;;;;;;14.90;8.30;;;6.10;62.70;;;;;;4994898;28;20436;-82
2023/04/06 00:43:31;;;;;;;15.60;7.67;;;6.10;63.00;;;;;;4994907;28;20055;-82
2023/04/06 00:45:57;;;;;;;13.70;7.67;;;6.10;63.00;;;;;;4994738;28;20053;-82
2023/04/06 00:48:23;;;;;;;13.50;7.87;;;6.00;62.90;;;;;;4994801;28;20030;-82
2023/04/06 00:50:49;;;;;;;12.17;7.33;;;6.00;63.00;;;;;;5010974;28;20447;-81
2023/04/06 00:53:15;;;;;;;15.50;7.33;;;6.00;63.10;;;;;;4994652;28;20037;-81
2023/04/06 00:55:40;;;;;;;14.93;7.20;;;6.00;63.20;;;;;;5010978;28;20026;-82
2023/04/06 00:58:07;;;;;;;14.27;7.30;;;5.90;63.30;;;;;;4994544;28;20037;-81
2023/04/06 01:00:33;;;;;;;14.10;7.90;;;5.90;63.40;;;;;;4994912;28;20030;-81
2023/04/06 01:02:58;;;;;;;15.27;7.77;;;5.90;63.50;;;;;;4994805;28;20034;-82
2023/04/06 01:05:24;;;;;;;14.80;7.30;;;5.90;63.60;;;;;;4978182;28;20457;-82
2023/04/06 01:07:50;;;;;;;15.17;7.33;;;5.80;63.60;;;;;;4994475;28;20067;-82
2023/04/06 01:10:34;;;;;;;15.77;7.60;;;5.80;63.80;;;;;;4994781;28;20030;-82
2023/04/06 01:13:00;;;;;;;12.77;6.90;;;5.80;63.90;;;;;;5011173;28;20104;-82
2023/04/06 01:15:26;;;;;;;13.30;6.73;;;5.80;63.80;;;;;;4994540;28;20558;-83
2023/04/06 01:17:52;;;;;;;12.67;7.20;;;5.80;63.80;;;;;;5011875;28;20049;-81
2023/04/06 01:20:18;;;;;;;14.80;6.90;;;5.70;64.00;;;;;;4994922;28;20083;-81
2023/04/06 01:22:44;;;;;;;15.23;8.13;;;5.70;64.20;;;;;;4994220;28;20022;-82
2023/04/06 01:25:10;;;;;;;13.03;6.97;;;5.70;64.10;;;;;;5010353;28;20022;-81
2023/04/06 01:27:36;;;;;;;12.77;7.10;;;5.70;64.20;;;;;;5010512;28;20021;-82
2023/04/06 01:30:02;;;;;;;13.10;7.57;;;5.70;64.20;;;;;;4994320;28;20101;-82
2023/04/06 01:32:28;;;;;;;13.77;7.70;;;5.70;64.20;;;;;;4994384;28;20026;-82
2023/04/06 01:34:54;;;;;;;13.60;7.77;;;5.60;64.10;;;;;;4977876;28;20033;-82
2023/04/06 01:37:20;;;;;;;12.13;6.80;;;5.60;64.20;;;;;;4993966;28;20410;-82
2023/04/06 01:39:46;;;;;;;12.83;6.93;;;5.60;64.40;;;;;;5009349;28;20056;-82
2023/04/06 01:42:11;;;;;;;13.33;7.50;;;5.60;64.40;;;;;;4993818;28;20026;-82
2023/04/06 01:44:37;;;;;;;12.97;7.33;;;5.50;64.40;;;;;;4993809;28;20054;-82
2023/04/06 01:47:03;;;;;;;14.07;7.90;;;5.50;64.50;;;;;;4977676;28;20498;-82
2023/04/06 01:49:29;;;;;;;15.30;7.67;;;5.50;64.60;;;;;;4977474;28;20030;-82
2023/04/06 01:51:54;;;;;;;13.27;7.77;;;5.50;64.70;;;;;;4994352;28;20541;-82
2023/04/06 01:54:20;;;;;;;11.50;7.13;;;5.50;64.70;;;;;;5010048;28;20381;-81
2023/04/06 01:56:46;;;;;;;13.03;7.60;;;5.50;64.80;;;;;;5009921;28;20508;-81
2023/04/06 01:59:11;;;;;;;14.40;7.90;;;5.40;64.90;;;;;;4977577;28;20071;-82
2023/04/06 02:01:37;;;;;;;15.80;7.93;;;5.40;64.90;;;;;;5009935;28;20026;-82
2023/04/06 02:04:03;;;;;;;12.67;7.37;;;5.40;65.10;;;;;;4993555;28;20030;-82
2023/04/06 02:06:28;;;;;;;14.77;8.13;;;5.40;65.20;;;;;;4993773;28;20022;-82
2023/04/06 02:08:56;;;;;;;12.87;7.67;;;5.40;65.20;;;;;;4993922;28;20033;-82
2023/04/06 02:11:22;;;;;;;14.40;8.10;;;5.40;65.30;;;;;;4993677;28;20079;-82
2023/04/06 02:13:47;;;;;;;14.53;8.50;;;5.40;65.40;;;;;;4977289;28;20021;-82
2023/04/06 02:16:14;;;;;;;14.53;8.00;;;5.40;65.70;;;;;;4977626;28;20030;-82
2023/04/06 02:18:40;;;;;;;13.40;7.80;;;5.40;65.70;;;;;;4977516;28;20033;-82
2023/04/06 02:21:06;;;;;;;16.07;7.67;;;5.40;65.70;;;;;;4993483;28;20118;-81
2023/04/06 02:23:31;;;;;;;14.67;8.00;;;5.40;65.70;;;;;;4977307;28;20106;-81
2023/04/06 02:25:57;;;;;;;13.90;7.30;;;5.40;65.80;;;;;;4993348;28;20113;-81
2023/04/06 02:28:23;;;;;;;12.80;7.67;;;5.40;65.80;;;;;;4977143;28;20383;-81
2023/04/06 02:30:48;;;;;;;14.90;8.07;;;5.50;66.00;;;;;;4993485;28;20033;-82
2023/04/06 02:33:14;;;;;;;14.43;7.73;;;5.50;65.90;;;;;;5009595;28;20082;-82
2023/04/06 02:35:40;;;;;;;13.87;7.27;;;5.40;65.90;;;;;;4992991;28;20068;-82
2023/04/06 02:38:05;;;;;;;16.97;8.13;;;5.50;65.80;;;;;;4993083;28;20034;-82
2023/04/06 02:40:31;;;;;;;12.83;7.73;;;5.60;66.50;;;;;;4992995;28;20088;-81
2023/04/06 02:42:57;;;;;;;15.93;8.40;;;5.50;65.90;;;;;;4977086;28;20030;-82
2023/04/06 02:45:22;;;;;;;16.00;8.00;;;5.50;65.90;;;;;;4993022;28;20102;-82
2023/04/06 02:47:48;;;;;;;13.10;7.40;;;5.60;65.90;;;;;;4993131;28;20059;-81
2023/04/06 02:50:14;;;;;;;18.07;9.00;;;5.60;65.90;;;;;;4993010;28;20022;-82
2023/04/06 02:52:41;;;;;;;15.93;8.57;;;5.60;65.90;;;;;;4979727;28;20241;-82
2023/04/06 02:55:07;;;;;;;16.23;7.93;;;5.60;65.90;;;;;;4980467;28;20120;-82
2023/04/06 02:57:36;;;;;;;15.23;8.30;;;5.60;66.00;;;;;;5012695;28;20113;-81
2023/04/06 03:00:01;;;;;;;16.00;8.90;;;5.60;66.10;;;;;;5012902;28;20022;-82
2023/04/06 03:02:27;;;;;;;15.67;8.13;;;5.60;66.00;;;;;;4996620;28;20022;-82
2023/04/06 03:04:52;;;;;;;14.87;7.90;;;5.60;66.20;;;;;;4996181;28;20037;-82
2023/04/06 03:07:18;;;;;;;13.53;7.50;;;5.60;66.10;;;;;;4980111;28;20034;-82
2023/04/06 03:09:44;;;;;;;15.60;8.90;;;5.60;66.20;;;;;;4996267;28;20057;-82
2023/04/06 03:12:09;;;;;;;15.37;7.93;;;5.60;66.20;;;;;;4980222;28;20030;-82
2023/04/06 03:14:35;;;;;;;12.03;7.67;;;5.60;66.30;;;;;;4980454;28;20030;-82
2023/04/06 03:17:02;;;;;;;13.10;7.70;;;5.70;66.40;;;;;;4980081;28;20366;-82
2023/04/06 03:19:27;;;;;;;14.80;8.00;;;5.70;66.40;;;;;;4980184;28;20393;-82
2023/04/06 03:21:53;;;;;;;16.23;7.97;;;5.70;66.30;;;;;;4979951;28;20034;-82
2023/04/06 03:24:19;;;;;;;18.57;8.70;;;5.70;66.30;;;;;;4996525;28;20038;-82
2023/04/06 03:26:45;;;;;;;13.13;7.77;;;5.70;66.10;;;;;;5012287;28;20423;-82
2023/04/06 03:29:10;;;;;;;15.73;8.27;;;5.70;66.10;;;;;;5012037;28;20032;-82
2023/04/06 03:31:52;;;;;;;15.30;8.37;;;5.70;66.00;;;;;;4995992;28;20026;-82
2023/04/06 03:34:18;;;;;;;15.73;8.53;;;5.60;65.90;;;;;;5012250;28;20029;-81
2023/04/06 03:36:43;;;;;;;15.13;8.17;;;5.70;65.90;;;;;;4995932;28;20057;-82
2023/04/06 03:39:09;;;;;;;16.13;8.70;;;5.70;65.80;;;;;;4995675;28;20038;-82
2023/04/06 03:41:35;;;;;;;16.23;8.13;;;5.80;65.70;;;;;;5012115;28;20157;-82
2023/04/06 03:44:00;;;;;;;13.47;8.03;;;5.70;66.30;;;;;;4979555;28;20446;-82
2023/04/06 03:46:26;;;;;;;14.43;8.30;;;5.80;65.60;;;;;;5012035;28;20029;-82
2023/04/06 03:48:52;;;;;;;14.47;8.50;;;5.80;65.60;;;;;;4979503;28;20034;-82
2023/04/06 03:51:17;;;;;;;15.77;8.23;;;5.80;65.50;;;;;;5011857;28;20449;-82
2023/04/06 03:53:43;;;;;;;14.53;8.03;;;5.80;65.50;;;;;;4979325;28;20121;-82
2023/04/06 03:56:09;;;;;;;15.13;8.57;;;5.80;65.50;;;;;;4995531;28;20042;-82
2023/04/06 03:58:34;;;;;;;15.33;8.00;;;5.90;65.60;;;;;;5011889;28;20058;-81
2023/04/06 04:01:00;;;;;;;15.30;8.33;;;5.80;65.50;;;;;;5012230;28;20542;-81
2023/04/06 04:03:27;;;;;;;16.07;7.93;;;5.80;65.40;;;;;;4994824;28;20037;-81
2023/04/06 04:05:55;;;;;;;13.70;7.60;;;5.80;65.30;;;;;;4995574;28;20394;-81
2023/04/06 04:08:21;;;;;;;17.43;8.83;;;5.80;65.30;;;;;;4995995;28;20068;-81
2023/04/06 04:10:47;;;;;;;16.10;7.60;;;5.90;65.30;;;;;;4995614;28;20067;-82
2023/04/06 04:13:12;;;;;;;14.73;8.03;;;5.90;65.20;;;;;;4995174;28;20030;-82
2023/04/06 04:15:38;;;;;;;16.43;7.67;;;5.90;65.20;;;;;;4995349;28;20091;-82
2023/04/06 04:18:04;;;;;;;17.23;7.83;;;5.90;65.10;;;;;;4995047;28;20104;-81
2023/04/06 04:20:29;;;;;;;14.40;8.03;;;5.90;65.00;;;;;;4995408;28;20439;-82
2023/04/06 04:22:55;;;;;;;14.90;7.90;;;5.90;65.00;;;;;;4979048;28;20066;-81
2023/04/06 04:25:21;;;;;;;16.20;7.90;;;5.90;65.00;;;;;;4994953;28;20382;-81
2023/04/06 04:27:46;;;;;;;14.57;8.73;;;5.90;65.00;;;;;;5011333;28;20109;-81
2023/04/06 04:30:12;;;;;;;15.93;8.63;;;5.90;64.90;;;;;;4978620;28;20030;-82
2023/04/06 04:32:38;;;;;;;14.43;8.27;;;5.90;64.90;;;;;;4994971;28;20030;-82
2023/04/06 04:35:04;;;;;;;16.47;8.33;;;5.90;64.80;;;;;;4994851;28;20099;-82
2023/04/06 04:37:29;;;;;;;16.80;8.90;;;5.90;64.90;;;;;;4978544;28;20058;-81
2023/04/06 04:39:55;;;;;;;15.00;8.80;;;5.90;64.90;;;;;;4978648;28;20033;-78
2023/04/06 04:42:21;;;;;;;15.53;9.17;;;6.00;64.80;;;;;;4994902;28;20042;-78
2023/04/06 04:44:47;;;;;;;14.07;8.10;;;5.90;64.80;;;;;;4994855;28;20041;-84
2023/04/06 04:47:13;;;;;;;14.27;8.13;;;6.00;65.00;;;;;;4978718;28;20030;-83
2023/04/06 04:49:38;;;;;;;14.33;9.03;;;5.90;64.80;;;;;;5011356;28;20014;-84
2023/04/06 04:52:04;;;;;;;16.03;9.27;;;6.00;64.90;;;;;;4992673;28;20030;-83
2023/04/06 04:54:30;;;;;;;16.40;8.93;;;6.00;64.90;;;;;;4994466;28;20117;-83
2023/04/06 04:56:55;;;;;;;18.30;9.60;;;6.00;65.00;;;;;;4977925;28;20084;-83
2023/04/06 04:59:21;;;;;;;15.67;8.70;;;6.00;65.00;;;;;;4990990;28;20035;-83
2023/04/06 05:01:47;;;;;;;17.80;8.60;;;6.00;65.10;;;;;;4994330;28;20037;-83
2023/04/06 05:04:12;;;;;;;16.17;9.27;;;5.90;65.00;;;;;;5003338;28;20042;-83
2023/04/06 05:06:38;;;;;;;15.07;9.57;;;5.90;65.10;;;;;;4992025;28;20371;-83
2023/04/06 05:09:03;;;;;;;19.43;9.93;;;5.90;65.10;;;;;;4981180;28;20424;-83
2023/04/06 05:11:29;;;;;;;20.83;9.33;;;5.90;65.20;;;;;;4974604;28;20390;-83
2023/04/06 05:13:56;;;;;;;18.30;9.77;;;5.90;65.10;;;;;;4998738;28;20396;-83
2023/04/06 05:16:21;;;;;;;16.27;9.27;;;5.90;65.10;;;;;;4980588;28;20045;-83
2023/04/06 05:18:48;;;;;;;17.03;9.17;;;5.90;65.10;;;;;;4989713;28;20026;-84
2023/04/06 05:21:14;;;;;;;16.23;9.60;;;5.90;65.10;;;;;;4989105;28;20031;-83
2023/04/06 05:23:43;;;;;;;17.00;9.43;;;5.90;65.10;;;;;;4990401;28;20042;-83
2023/04/06 05:26:08;;;;;;;17.67;9.93;;;5.90;65.90;;;;;;4991102;28;20549;-84
2023/04/06 05:28:34;;;;;;;16.73;9.73;;;5.90;65.20;;;;;;4992197;28;20066;-83
2023/04/06 05:31:00;;;;;;;17.23;9.37;;;5.90;65.20;;;;;;4990788;28;20582;-83
2023/04/06 05:33:26;;;;;;;16.47;9.33;;;5.90;65.20;;;;;;5046881;28;20041;-82
2023/04/06 05:35:51;;;;;;;14.90;9.10;;;6.00;65.20;;;;;;4992567;28;20061;-84
2023/04/06 05:38:17;;;;;;;18.77;10.17;;;6.00;65.30;;;;;;4976049;28;20371;-84
2023/04/06 05:40:43;;;;;;;16.17;8.97;;;6.00;65.30;;;;;;4991774;28;20042;-83
2023/04/06 05:43:08;;;;;;;17.17;9.17;;;6.00;65.20;;;;;;4994102;28;20086;-83
2023/04/06 05:45:34;;;;;;;20.47;10.50;;;6.10;65.20;;;;;;4993953;28;20487;-83
2023/04/06 05:48:03;;;;;;;18.60;9.63;;;6.10;65.20;;;;;;4993605;28;20026;-84
2023/04/06 05:50:29;;;;;;;20.13;9.97;;;6.10;65.20;;;;;;4993663;28;20058;-84
2023/04/06 05:52:55;;;;;;;19.60;8.80;;;6.20;65.30;;;;;;4993395;28;20049;-84
2023/04/06 05:55:20;;;;;;;21.17;10.53;;;6.20;65.30;;;;;;4992882;28;20034;-83
2023/04/06 06:05:15;;;;;;;17.57;8.73;;;6.30;63.50;;;;;;5110846;27;20899;-84
2023/04/06 06:07:41;;;;;;;18.23;9.60;;;6.30;63.50;;;;;;5093175;28;20030;-85
2023/04/06 06:10:08;;;;;;;19.30;10.13;;;6.40;64.10;;;;;;5110104;28;20403;-85
2023/04/06 06:12:33;;;;;;;17.90;10.50;;;6.40;64.20;;;;;;5109942;28;20085;-84
2023/04/06 06:15:00;;;;;;;20.77;10.93;;;6.50;64.40;;;;;;5082106;28;20060;-85
2023/04/06 06:17:25;;;;;;;17.77;9.83;;;6.60;64.50;;;;;;5089443;28;20078;-85
2023/04/06 06:19:51;;;;;;;20.53;11.53;;;6.60;64.60;;;;;;5090236;28;20376;-84
2023/04/06 06:22:17;;;;;;;19.63;10.67;;;6.80;64.70;;;;;;5072888;28;20068;-84
2023/04/06 06:24:42;;;;;;;18.33;10.93;;;6.80;64.70;;;;;;5072743;28;20033;-86
2023/04/06 06:27:08;;;;;;;20.63;11.47;;;6.90;64.70;;;;;;5072575;28;20084;-84
2023/04/06 06:29:34;;;;;;;22.17;10.93;;;7.00;65.40;;;;;;5089372;28;20021;-85
2023/04/06 06:32:00;;;;;;;19.03;10.20;;;7.00;64.60;;;;;;5072553;28;20069;-85
2023/04/06 06:34:25;;;;;;;16.87;10.20;;;7.10;64.50;;;;;;5105910;28;20032;-84
2023/04/06 06:36:51;;;;;;;17.67;10.53;;;7.20;64.50;;;;;;5088945;28;20442;-85
2023/04/06 06:39:17;;;;;;;20.33;11.47;;;7.20;64.30;;;;;;5090188;28;20553;-84
2023/04/06 06:41:43;;;;;;;18.87;10.53;;;7.30;64.20;;;;;;5089330;28;20032;-84
2023/04/06 06:44:08;;;;;;;21.60;11.50;;;7.40;64.30;;;;;;5088403;28;20078;-84
2023/04/06 06:46:34;;;;;;;22.53;11.03;;;7.40;64.10;;;;;;5098093;28;20051;-83
2023/04/06 06:49:00;;;;;;;20.37;11.67;;;7.50;64.00;;;;;;5110617;28;20028;-84
2023/04/06 06:51:25;;;;;;;22.23;12.53;;;7.50;63.90;;;;;;5108970;28;20054;-84
2023/04/06 06:53:51;;;;;;;19.97;11.97;;;7.60;63.80;;;;;;5092528;28;20043;-84
2023/04/06 06:56:17;;;;;;;22.20;12.23;;;7.60;63.70;;;;;;5092234;28;20024;-84
2023/04/06 06:58:43;;;;;;;21.57;12.87;;;7.70;63.70;;;;;;5110401;28;20027;-84
2023/04/06 07:01:08;;;;;;;20.17;11.47;;;7.70;63.60;;;;;;5104512;28;20035;-83
2023/04/06 07:03:34;;;;;;;19.70;11.90;;;7.80;63.60;;;;;;5088369;28;20045;-84
2023/04/06 07:06:00;;;;;;;20.97;11.97;;;7.80;63.50;;;;;;5088492;28;20025;-83
2023/04/06 07:08:25;;;;;;;22.83;13.20;;;7.80;63.40;;;;;;5090271;28;20020;-84
2023/04/06 07:10:52;;;;;;;22.20;12.30;;;7.90;63.50;;;;;;5071753;28;20024;-88
2023/04/06 07:13:22;;;;;;;22.30;12.17;;;8.00;63.70;;;;;;5071762;28;20047;-87
2023/04/06 07:15:51;;;;;;;22.73;11.83;;;8.00;63.40;;;;;;5079691;28;20020;-86
2023/04/06 07:18:18;;;;;;;19.70;11.97;;;8.10;63.30;;;;;;5058347;28;20380;-87
2023/04/06 07:20:44;;;;;;;20.33;11.83;;;8.20;63.10;;;;;;5058258;28;20032;-86
2023/04/06 07:23:09;;;;;;;20.37;11.53;;;8.30;63.10;;;;;;5075027;28;20085;-89
2023/04/06 07:25:35;;;;;;;24.03;12.23;;;8.30;62.90;;;;;;5058878;28;20021;-87
2023/04/06 07:28:02;;;;;;;17.87;10.90;;;8.40;62.90;;;;;;5059163;28;20052;-86
2023/04/06 07:30:28;;;;;;;22.43;11.87;;;8.50;62.80;;;;;;5058646;28;20035;-87
2023/04/06 07:32:59;;;;;;;19.77;11.93;;;8.60;62.70;;;;;;5079140;28;20024;-87
2023/04/06 07:35:26;;;;;;;29.70;12.60;;;8.70;62.60;;;;;;5095496;28;20086;-86
2023/04/06 07:37:53;;;;;;;21.27;12.50;;;8.80;62.40;;;;;;5058024;28;20128;-86
2023/04/06 07:40:19;;;;;;;21.27;12.63;;;8.90;62.30;;;;;;5054639;28;20551;-86
2023/04/06 07:42:45;;;;;;;22.07;13.03;;;8.90;62.00;;;;;;5054712;28;20024;-87
2023/04/06 07:45:11;;;;;;;22.47;12.40;;;9.00;61.90;;;;;;5054356;28;20051;-86
2023/04/06 07:47:37;;;;;;;19.90;11.47;;;9.00;61.80;;;;;;5054923;28;20021;-86
2023/04/06 07:50:03;;;;;;;22.50;12.33;;;9.10;61.90;;;;;;5054621;28;20026;-86
2023/04/06 07:52:28;;;;;;;22.40;12.60;;;9.10;61.50;;;;;;5038007;28;20026;-86
2023/04/06 07:54:54;;;;;;;22.40;12.00;;;9.10;61.50;;;;;;5071005;28;20025;-86
2023/04/06 07:57:20;;;;;;;18.30;11.00;;;9.20;61.50;;;;;;5054485;28;20033;-87
2023/04/06 07:59:46;;;;;;;21.20;12.37;;;9.20;61.50;;;;;;5071789;28;20408;-86
2023/04/06 08:02:11;;;;;;;24.10;13.33;;;9.30;61.40;;;;;;5054489;28;20539;-87
2023/04/06 08:04:37;;;;;;;21.40;12.37;;;9.30;61.00;;;;;;5054199;28;20083;-87
2023/04/06 08:07:03;;;;;;;20.50;12.50;;;9.40;61.10;;;;;;5037925;28;20029;-86
2023/04/06 08:09:28;;;;;;;22.63;12.57;;;9.40;60.90;;;;;;5059952;28;20357;-86
2023/04/06 08:11:54;;;;;;;22.83;13.70;;;9.50;60.80;;;;;;5074171;28;20059;-85
2023/04/06 08:14:20;;;;;;;19.20;11.57;;;9.60;60.60;;;;;;5070430;28;20032;-86
2023/04/06 08:16:46;;;;;;;20.43;11.80;;;9.60;60.40;;;;;;5037571;28;20090;-86
2023/04/06 08:19:12;;;;;;;20.80;11.57;;;9.60;60.20;;;;;;5067882;28;20027;-84
2023/04/06 08:21:39;;;;;;;22.37;12.77;;;9.70;60.20;;;;;;5094389;28;20056;-80
2023/04/06 08:24:06;;;;;;;23.47;12.10;;;9.80;60.10;;;;;;5066556;28;20513;-83
2023/04/06 08:26:31;;;;;;;23.77;12.57;;;9.90;60.10;;;;;;5046978;28;20021;-84
2023/04/06 08:28:57;;;;;;;20.27;12.57;;;9.90;59.90;;;;;;5073227;28;20024;-84
2023/04/06 08:31:23;;;;;;;18.87;11.13;;;9.90;59.80;;;;;;5052952;28;20448;-83
2023/04/06 08:33:48;;;;;;;21.07;11.97;;;10.00;59.70;;;;;;5053156;28;20025;-83
2023/04/06 08:36:15;;;;;;;22.37;12.73;;;10.10;59.70;;;;;;5036992;28;20029;-82
2023/04/06 08:38:42;;;;;;;21.43;12.97;;;10.20;59.70;;;;;;5036741;28;20143;-83
2023/04/06 08:41:13;;;;;;;20.00;12.60;;;10.30;59.50;;;;;;5036906;28;20091;-83
2023/04/06 08:43:44;;;;;;;22.07;11.70;;;10.40;59.40;;;;;;5053280;28;20052;-83
2023/04/06 08:46:11;;;;;;;19.40;11.53;;;10.50;59.30;;;;;;5054661;28;20024;-83
2023/04/06 08:48:39;;;;;;;22.73;12.47;;;10.60;59.30;;;;;;5036918;28;20059;-83
2023/04/06 08:51:05;;;;;;;22.33;12.30;;;10.70;59.10;;;;;;5055576;28;20021;-83
2023/04/06 08:53:31;;;;;;;18.67;11.57;;;10.70;59.00;;;;;;5050690;28;20024;-84
2023/04/06 08:55:58;;;;;;;17.87;11.73;;;10.90;58.90;;;;;;5054885;28;20055;-86
2023/04/06 08:58:24;;;;;;;18.93;12.43;;;11.00;59.00;;;;;;5054075;28;20111;-85
2023/04/06 09:00:51;;;;;;;19.30;11.73;;;11.00;58.80;;;;;;5047958;28;20094;-86
2023/04/06 09:03:17;;;;;;;19.90;12.67;;;11.20;58.70;;;;;;5057414;28;20366;-84
2023/04/06 09:05:44;;;;;;;23.27;12.83;;;11.20;57.90;;;;;;5058575;28;20047;-87
2023/04/06 09:08:10;;;;;;;23.60;13.30;;;11.30;57.40;;;;;;5062364;28;20036;-86
2023/04/06 09:10:40;;;;;;;24.70;14.83;;;11.40;57.20;;;;;;5094744;28;20028;-85
2023/04/06 09:13:06;;;;;;;24.23;14.30;;;11.50;56.70;;;;;;5101374;28;20092;-86
2023/04/06 09:15:32;;;;;;;25.13;14.50;;;11.50;56.30;;;;;;5085846;28;20038;-85
2023/04/06 09:17:58;;;;;;;25.13;14.73;;;11.50;56.20;;;;;;5101772;28;20024;-84
2023/04/06 09:20:28;;;;;;;23.37;14.67;;;11.50;55.90;;;;;;5108393;28;20016;-83
2023/04/06 09:22:54;;;;;;;23.45;14.70;;;11.50;55.80;;;;;;5100700;28;20050;-85
2023/04/06 09:25:22;;;;;;;25.48;14.25;;;11.60;56.40;;;;;;5077091;28;20471;-85
2023/04/06 09:27:57;;;;;;;22.20;13.80;;;11.60;55.90;;;;;;5059975;28;20014;-86
2023/04/06 09:30:24;;;;;;;22.63;14.27;;;11.70;56.00;;;;;;5054210;28;20025;-85
2023/04/06 09:32:56;;;;;;;22.88;13.63;;;11.80;55.90;;;;;;5053373;28;20035;-84
2023/04/06 09:35:23;;;;;;;23.55;14.18;;;11.90;56.00;;;;;;5054141;28;20025;-87
2023/04/06 09:37:51;;;;;;;23.40;14.65;;;12.00;55.90;;;;;;5069854;28;20112;-84
2023/04/06 09:40:18;;;;;;;26.60;15.30;;;12.10;56.00;;;;;;5069489;28;20021;-85
2023/04/06 09:42:48;;;;;;;22.83;14.02;;;12.20;55.80;;;;;;5053981;28;20028;-85
2023/04/06 09:45:14;;;;;;;23.55;13.93;;;12.20;55.70;;;;;;5037526;28;20123;-84
2023/04/06 09:47:43;;;;;;;35.35;14.35;;;12.30;55.80;;;;;;5056235;28;20029;-86
2023/04/06 09:50:11;;;;;;;23.58;14.65;;;12.30;55.60;;;;;;5071668;28;20021;-85
2023/04/06 09:52:49;;;;;;;28.48;14.95;;;12.40;55.60;;;;;;5069151;28;20013;-85
2023/04/06 09:55:28;;;;;;;23.83;14.65;;;12.40;55.20;;;;;;5069335;28;20025;-85
2023/04/06 09:58:06;;;;;;;26.25;15.85;;;12.40;55.20;;;;;;5086912;28;20024;-86
2023/04/06 10:08:00;;;;;;;24.88;14.48;;;12.50;54.00;;;;;;5109567;27;20396;-84
2023/04/06 10:10:27;;;;;;;26.35;15.50;;;12.50;54.50;;;;;;5109914;28;20101;-85
2023/04/06 10:12:55;;;;;;;23.77;14.85;;;12.50;55.00;;;;;;5093044;28;20019;-84
2023/04/06 10:15:21;;;;;;;25.33;14.70;;;12.60;55.20;;;;;;5109745;28;20023;-86
2023/04/06 10:17:47;;;;;;;23.65;13.82;;;12.50;55.20;;;;;;5076403;28;20082;-86
2023/04/06 10:20:21;;;;;;;24.33;14.63;;;12.50;55.40;;;;;;5093314;28;20023;-85
2023/04/06 10:23:15;;;;;;;23.20;15.10;;;12.50;55.60;;;;;;5109747;28;20030;-86
2023/04/06 10:25:55;;;;;;;22.60;13.80;;;12.40;55.40;;;;;;5110178;28;20106;-84
2023/04/06 10:28:20;;;;;;;24.65;15.85;;;12.40;55.60;;;;;;5109964;28;20020;-85
2023/04/06 10:30:46;;;;;;;26.05;14.80;;;12.30;55.60;;;;;;5109293;28;20433;-85
2023/04/06 10:33:17;;;;;;;21.23;13.05;;;12.30;55.80;;;;;;5092765;28;20023;-84
2023/04/06 10:35:43;;;;;;;22.85;14.15;;;12.20;55.90;;;;;;5093157;28;20028;-86
2023/04/06 10:38:09;;;;;;;25.43;13.67;;;12.30;56.10;;;;;;5109462;28;20043;-85
2023/04/06 10:40:39;;;;;;;22.45;14.15;;;12.30;56.20;;;;;;5092954;28;20391;-86
2023/04/06 10:43:32;;;;;;;20.20;13.15;;;12.30;56.20;;;;;;5109931;28;20020;-86
2023/04/06 10:46:00;;;;;;;22.35;12.40;;;12.30;56.40;;;;;;5109686;28;20027;-85
2023/04/06 10:48:40;;;;;;;20.10;11.05;;;12.40;56.60;;;;;;5092875;28;20028;-85
2023/04/06 10:51:14;;;;;;;21.10;11.82;;;12.50;56.70;;;;;;5110634;28;20031;-85
2023/04/06 10:53:49;;;;;;;;;;;12.70;56.90;;;;;;5111775;28;20023;-86
2023/04/06 10:56:17;;;;;;;20.00;11.88;;;12.80;56.90;;;;;;5109629;28;19904;-86
2023/04/06 10:58:51;;;;;;;18.17;10.85;;;13.00;56.80;;;;;;5109375;28;20057;-86
2023/04/06 11:01:18;;;;;;;;;;;13.10;56.80;;;;;;5109869;28;20115;-85
2023/04/06 11:03:45;;;;;;;18.58;11.60;;;13.10;56.50;;;;;;5108938;28;19911;-84
2023/04/06 11:06:17;;;;;;;20.00;12.02;;;13.10;56.50;;;;;;5108723;28;20048;-84
2023/04/06 11:08:42;;;;;;;17.33;11.52;;;13.10;56.90;;;;;;5108593;28;20068;-83
2023/04/06 11:11:10;;;;;;;22.30;12.18;;;13.10;56.90;;;;;;5091959;28;20127;-85
2023/04/06 11:13:41;;;;;;;18.42;11.32;;;13.00;57.10;;;;;;5090929;28;20024;-86
2023/04/06 11:16:12;;;;;;;18.05;11.13;;;13.00;57.30;;;;;;5108694;28;20019;-85
2023/04/06 11:18:37;;;;;;;16.65;9.63;;;13.10;57.60;;;;;;5082421;28;20034;-85
2023/04/06 11:21:03;;;;;;;15.18;8.98;;;13.10;57.70;;;;;;5061529;28;20024;-85
2023/04/06 11:23:29;;;;;;;16.65;11.30;;;13.20;57.90;;;;;;5061553;28;20369;-86
2023/04/06 11:25:54;;;;;;;15.27;10.27;;;13.20;58.20;;;;;;5095326;28;20028;-83
2023/04/06 11:28:20;;;;;;;16.30;10.00;;;13.20;58.40;;;;;;5077860;28;20020;-83
2023/04/06 11:30:47;;;;;;;17.20;10.73;;;13.20;59.00;;;;;;5094642;28;20107;-84
2023/04/06 11:33:22;;;;;;;16.52;9.18;;;13.20;59.30;;;;;;5058043;28;20028;-83
2023/04/06 11:35:48;;;;;;;16.33;9.07;;;13.00;59.90;;;;;;5068614;28;20021;-84
2023/04/06 11:38:14;;;;;;;16.65;9.57;;;12.90;60.70;;;;;;5078042;28;20039;-85
2023/04/06 11:40:40;;;;;;;14.20;9.07;;;12.80;62.20;;;;;;5095400;28;20472;-84
2023/04/06 11:43:06;;;;;;;15.90;9.52;;;12.80;62.80;;;;;;5094637;28;20024;-85
2023/04/06 11:45:42;;;;;;;16.85;9.45;;;12.80;63.80;;;;;;5061068;28;20035;-80
2023/04/06 11:48:18;;;;;;;14.98;8.82;;;12.70;64.30;;;;;;5094265;28;20024;-80
2023/04/06 11:50:47;;;;;;;15.85;8.77;;;12.60;65.30;;;;;;5093712;28;20025;-79
2023/04/06 11:53:13;;;;;;;19.88;8.18;;;12.50;65.70;;;;;;5095277;28;20027;-78
2023/04/06 11:55:39;;;;;;;15.90;8.82;;;12.40;66.60;;;;;;5077636;28;20024;-79
2023/04/06 11:58:06;;;;;;;13.90;7.50;;;12.20;66.60;;;;;;5095386;28;20058;-79
2023/04/06 12:00:34;;;;;;;14.27;7.60;;;12.10;66.70;;;;;;5093949;28;20390;-80
2023/04/06 12:03:00;;;;;;;12.73;7.67;;;12.00;67.40;;;;;;5075331;28;20533;-80
2023/04/06 12:05:26;;;;;;;12.77;7.22;;;11.90;67.60;;;;;;5094268;28;20016;-77
2023/04/06 12:07:52;;;;;;;12.50;7.57;;;11.80;68.20;;;;;;5060559;28;20044;-78
2023/04/06 12:10:18;;;;;;;12.15;7.22;;;11.70;68.70;;;;;;5094545;28;20031;-80
2023/04/06 12:12:43;;;;;;;11.27;6.83;;;11.60;69.50;;;;;;5095435;28;20503;-78
2023/04/06 12:15:09;;;;;;;16.00;8.13;;;11.60;69.80;;;;;;5060626;28;20055;-78
2023/04/06 12:17:36;;;;;;;12.27;6.87;;;11.50;69.60;;;;;;5094043;28;20054;-78
2023/04/06 12:20:02;;;;;;;13.50;6.70;;;11.40;70.30;;;;;;5077166;28;20384;-79
2023/04/06 12:22:28;;;;;;;12.90;6.93;;;11.30;71.00;;;;;;5093938;28;20021;-79
2023/04/06 12:24:54;;;;;;;14.30;6.43;;;11.20;71.50;;;;;;5060209;28;20024;-80
2023/04/06 12:27:20;;;;;;;13.87;7.33;;;11.10;72.60;;;;;;5089658;28;20032;-82
2023/04/06 12:29:49;;;;;;;14.87;6.77;;;10.90;73.20;;;;;;5071330;28;20391;-84
2023/04/06 12:32:14;;;;;;;11.50;6.07;;;10.90;74.10;;;;;;5041035;28;20055;-83
2023/04/06 12:34:40;;;;;;;13.70;7.43;;;10.80;74.50;;;;;;5073311;28;20029;-82
2023/04/06 12:37:06;;;;;;;10.63;6.00;;;10.80;74.70;;;;;;5056685;28;20021;-84
2023/04/06 12:39:32;;;;;;;11.53;6.03;;;10.80;75.10;;;;;;5090169;28;20115;-84
2023/04/06 12:41:57;;;;;;;10.80;5.80;;;10.70;76.20;;;;;;5056855;28;20029;-83
2023/04/06 12:44:23;;;;;;;10.77;6.03;;;10.70;76.40;;;;;;5056449;28;20033;-83
2023/04/06 12:46:50;;;;;;;11.13;5.83;;;10.60;76.60;;;;;;5074786;28;20071;-82
2023/04/06 12:49:17;;;;;;;7.90;4.33;;;10.50;76.80;;;;;;5074078;28;20035;-82
2023/04/06 12:51:42;;;;;;;8.80;5.07;;;10.50;77.20;;;;;;5074694;28;20052;-80
2023/04/06 12:54:08;;;;;;;10.83;5.40;;;10.50;77.60;;;;;;5039860;28;20384;-79